Terminal Aerodrome Forecast
Issued by NWS

Home | Current Version | Previous Version | Text Only | Print | Product List | Glossary On
Versions: 1 2 3 4 5 6 7 8 9 10 11 12 13
481
FTUS46 KSGX 302332
TAFTRM
TAF
KTRM 302332Z 0100/0124 32015G25KT P6SM VCSH SCT080
     FM010900 32011G21KT P6SM SCT100
     FM011200 VRB05KT P6SM SCT100=

USA.gov is the U.S. government's official web portal to all federal, state and local government web resources and services.